Time;durP1;ratioP1;P1;durP2;ratioP2;P2;SDS_P1;SDS_P2;PMS_P1;PMS_P2;Temp;Humidity;BMP_temperature;BMP_pressure;BME280_temperature;BME280_humidity;BME280_pressure;Samples;Min_cycle;Max_cycle;Signal;HPM_P1;HPM_P2
2022/02/12 00:00:24;;;;;;;9.27;8.30;;;;;;;;;;5052957;28;20197;-88
2022/02/12 00:02:52;;;;;;;9.30;8.23;;;;;;;;;;5053054;28;20271;-88
2022/02/12 00:05:20;;;;;;;14.57;11.33;;;;;;;;;;5053314;28;20202;-87
2022/02/12 00:07:48;;;;;;;17.00;11.57;;;;;;;;;;5052845;28;20226;-88
2022/02/12 00:10:15;;;;;;;21.30;14.80;;;;;;;;;;5052846;28;20197;-88
2022/02/12 00:12:43;;;;;;;17.23;11.90;;;;;;;;;;5053342;28;20594;-89
2022/02/12 00:15:11;;;;;;;18.03;13.10;;;;;;;;;;5053043;28;20288;-88
2022/02/12 00:17:38;;;;;;;10.77;8.93;;;;;;;;;;5053221;28;20613;-88
2022/02/12 00:20:07;;;;;;;12.47;9.67;;;;;;;;;;5052763;28;20200;-88
2022/02/12 00:22:34;;;;;;;13.13;9.70;;;;;;;;;;5053129;28;20198;-88
2022/02/12 00:25:03;;;;;;;12.43;10.30;;;;;;;;;;5052848;28;20209;-90
2022/02/12 00:27:30;;;;;;;11.93;10.07;;;;;;;;;;5052823;28;20194;-88
2022/02/12 00:29:57;;;;;;;8.80;7.93;;;;;;;;;;5052882;28;20212;-88
2022/02/12 00:32:25;;;;;;;9.53;8.53;;;;;;;;;;5052686;28;20197;-88
2022/02/12 00:34:52;;;;;;;11.43;9.47;;;;;;;;;;5052592;28;20194;-88
2022/02/12 00:37:20;;;;;;;14.73;8.57;;;;;;;;;;5052819;28;20651;-88
2022/02/12 00:39:47;;;;;;;10.27;8.73;;;;;;;;;;5053102;28;20694;-90
2022/02/12 00:42:16;;;;;;;9.43;8.40;;;;;;;;;;5052841;28;20226;-88
2022/02/12 00:44:43;;;;;;;8.70;7.80;;;;;;;;;;5052586;28;20288;-89
2022/02/12 00:47:11;;;;;;;12.43;8.57;;;;;;;;;;5052725;28;20193;-88
2022/02/12 00:49:38;;;;;;;10.03;8.37;;;;;;;;;;5052789;28;20252;-88
2022/02/12 00:52:05;;;;;;;10.07;8.00;;;;;;;;;;5052310;28;20229;-88
2022/02/12 00:54:33;;;;;;;8.13;7.33;;;;;;;;;;5052493;28;20276;-89
2022/02/12 00:57:00;;;;;;;9.20;8.03;;;;;;;;;;5052710;28;20232;-88
2022/02/12 00:59:29;;;;;;;8.80;6.87;;;;;;;;;;5052549;28;20212;-88
2022/02/12 01:01:56;;;;;;;11.70;7.93;;;;;;;;;;5053509;28;20208;-88
2022/02/12 01:04:23;;;;;;;10.57;8.10;;;;;;;;;;5056508;28;20209;-89
2022/02/12 01:06:51;;;;;;;10.63;8.50;;;;;;;;;;5056796;28;20193;-88
2022/02/12 01:09:18;;;;;;;9.20;8.03;;;;;;;;;;5056257;28;20227;-90
2022/02/12 01:11:45;;;;;;;7.90;7.10;;;;;;;;;;5056736;28;20655;-89
2022/02/12 01:14:12;;;;;;;9.50;7.47;;;;;;;;;;5056371;28;20719;-88
2022/02/12 01:16:41;;;;;;;8.70;7.80;;;;;;;;;;5056699;28;20654;-87
2022/02/12 01:19:08;;;;;;;10.37;7.10;;;;;;;;;;5056432;28;20206;-88
2022/02/12 01:21:35;;;;;;;11.50;8.07;;;;;;;;;;5056491;28;20198;-88
2022/02/12 01:24:03;;;;;;;10.10;7.80;;;;;;;;;;5056230;28;20197;-90
2022/02/12 01:26:30;;;;;;;9.10;7.83;;;;;;;;;;5056201;28;20186;-88
2022/02/12 01:28:57;;;;;;;9.57;8.57;;;;;;;;;;5056151;28;20226;-87
2022/02/12 01:31:24;;;;;;;9.70;8.53;;;;;;;;;;5056006;28;20198;-88
2022/02/12 01:33:53;;;;;;;10.53;7.87;;;;;;;;;;5055964;28;20197;-88
2022/02/12 01:36:20;;;;;;;9.90;8.33;;;;;;;;;;5055776;28;20194;-87
2022/02/12 01:38:47;;;;;;;10.20;8.60;;;;;;;;;;5055912;28;20198;-88
2022/02/12 01:41:15;;;;;;;10.70;8.40;;;;;;;;;;5055773;28;20209;-88
2022/02/12 01:43:42;;;;;;;10.80;8.47;;;;;;;;;;5055808;28;20288;-88
2022/02/12 01:46:10;;;;;;;9.90;8.83;;;;;;;;;;5055613;28;20256;-88
2022/02/12 01:48:41;;;;;;;12.20;8.57;;;;;;;;;;5055752;28;20608;-89
2022/02/12 01:51:10;;;;;;;11.23;8.40;;;;;;;;;;5055385;28;20237;-89
2022/02/12 01:53:38;;;;;;;11.90;9.03;;;;;;;;;;5055763;28;20182;-87
2022/02/12 01:56:05;;;;;;;13.50;9.13;;;;;;;;;;5055518;28;20198;-88
2022/02/12 01:58:32;;;;;;;11.83;8.50;;;;;;;;;;5055911;28;20562;-88
2022/02/12 02:01:00;;;;;;;13.43;9.50;;;;;;;;;;5055495;28;20193;-89
2022/02/12 02:03:27;;;;;;;10.30;8.53;;;;;;;;;;5055614;28;20229;-87
2022/02/12 02:05:55;;;;;;;10.37;8.40;;;;;;;;;;5055218;28;20198;-87
2022/02/12 02:08:24;;;;;;;12.37;8.70;;;;;;;;;;5054886;28;20218;-88
2022/02/12 02:10:53;;;;;;;7.97;6.77;;;;;;;;;;5054884;28;20691;-87
2022/02/12 02:13:27;;;;;;;7.93;6.23;;;;;;;;;;5054596;28;20206;-89
2022/02/12 02:15:54;;;;;;;9.60;8.00;;;;;;;;;;5055167;28;20190;-87
2022/02/12 02:18:22;;;;;;;9.60;7.77;;;;;;;;;;5055026;28;20198;-87
2022/02/12 02:20:49;;;;;;;9.33;8.30;;;;;;;;;;5055088;28;20200;-87
2022/02/12 02:23:19;;;;;;;9.90;8.50;;;;;;;;;;5055449;28;20573;-88
2022/02/12 02:25:46;;;;;;;10.67;8.37;;;;;;;;;;5055106;28;20202;-88
2022/02/12 02:28:13;;;;;;;8.67;7.20;;;;;;;;;;5054880;28;20202;-88
2022/02/12 02:30:41;;;;;;;8.53;6.70;;;;;;;;;;5055103;28;20564;-87
2022/02/12 02:33:09;;;;;;;9.17;7.40;;;;;;;;;;5054614;28;20198;-88
2022/02/12 02:35:37;;;;;;;12.27;8.47;;;;;;;;;;5055021;28;20202;-87
2022/02/12 02:38:08;;;;;;;8.93;7.97;;;;;;;;;;5054829;28;20568;-88
2022/02/12 02:40:37;;;;;;;10.23;8.93;;;;;;;;;;5054946;28;20205;-88
2022/02/12 02:43:04;;;;;;;10.40;8.27;;;;;;;;;;5054744;28;20289;-88
2022/02/12 02:45:32;;;;;;;8.63;7.77;;;;;;;;;;5054540;28;20650;-87
2022/02/12 02:48:00;;;;;;;11.47;8.20;;;;;;;;;;5054435;28;20682;-87
2022/02/12 02:56:02;;;;;;;11.60;7.67;;;;;;;;;;5054518;28;20320;-87
2022/02/12 02:58:32;;;;;;;9.37;7.90;;;;;;;;;;5054140;28;20182;-88
2022/02/12 03:00:59;;;;;;;8.20;7.40;;;;;;;;;;5054287;28;20217;-87
2022/02/12 03:03:26;;;;;;;9.83;7.43;;;;;;;;;;5054296;28;20697;-87
2022/02/12 03:05:54;;;;;;;6.77;6.13;;;;;;;;;;5053935;28;20237;-87
2022/02/12 03:08:21;;;;;;;8.47;6.30;;;;;;;;;;5053920;28;20209;-87
2022/02/12 03:10:48;;;;;;;7.67;6.63;;;;;;;;;;5053846;28;20198;-87
2022/02/12 03:13:17;;;;;;;7.67;6.83;;;;;;;;;;5054070;28;20194;-87
2022/02/12 03:15:44;;;;;;;11.40;7.33;;;;;;;;;;5053686;28;20686;-87
2022/02/12 03:18:11;;;;;;;8.87;7.33;;;;;;;;;;5053732;28;20201;-86
2022/02/12 03:20:38;;;;;;;8.20;6.87;;;;;;;;;;5053915;28;20208;-87
2022/02/12 03:23:06;;;;;;;7.90;7.10;;;;;;;;;;5053819;28;20194;-86
2022/02/12 03:25:33;;;;;;;8.43;7.00;;;;;;;;;;5053627;28;20190;-87
2022/02/12 03:28:02;;;;;;;8.30;7.00;;;;;;;;;;5053817;28;20190;-87
2022/02/12 03:30:32;;;;;;;7.67;6.93;;;;;;;;;;5053214;28;20234;-87
2022/02/12 03:32:59;;;;;;;7.93;6.90;;;;;;;;;;5053979;28;20228;-87
2022/02/12 03:35:27;;;;;;;7.87;7.07;;;;;;;;;;5053320;28;20263;-87
2022/02/12 03:37:56;;;;;;;6.33;5.53;;;;;;;;;;5053255;28;20197;-87
2022/02/12 03:40:23;;;;;;;6.90;6.17;;;;;;;;;;5053426;28;20248;-87
2022/02/12 03:42:50;;;;;;;7.90;6.27;;;;;;;;;;5053512;28;20189;-87
2022/02/12 03:45:22;;;;;;;9.33;7.10;;;;;;;;;;5053203;28;20284;-86
2022/02/12 03:47:51;;;;;;;9.20;8.03;;;;;;;;;;5053413;28;20632;-86
2022/02/12 03:50:18;;;;;;;9.50;8.33;;;;;;;;;;5053137;28;20259;-87
2022/02/12 03:52:45;;;;;;;31.33;24.40;;;;;;;;;;5053120;28;20234;-87
2022/02/12 03:55:13;;;;;;;12.40;9.37;;;;;;;;;;5053020;28;20255;-86
2022/02/12 03:57:40;;;;;;;7.87;6.20;;;;;;;;;;5052865;28;20198;-86
2022/02/12 04:00:09;;;;;;;6.60;4.47;;;;;;;;;;5052969;28;20216;-87
2022/02/12 04:02:36;;;;;;;5.13;4.50;;;;;;;;;;5053066;28;20296;-86
2022/02/12 04:05:06;;;;;;;5.53;3.73;;;;;;;;;;5052851;28;20186;-86
2022/02/12 04:07:37;;;;;;;6.13;4.43;;;;;;;;;;5051435;28;20202;-88
2022/02/12 04:10:05;;;;;;;3.40;3.10;;;;;;;;;;5053346;28;20275;-89
2022/02/12 04:12:32;;;;;;;6.13;3.50;;;;;;;;;;5052886;28;20280;-89
2022/02/12 04:14:59;;;;;;;4.10;3.53;;;;;;;;;;5053111;28;20205;-89
2022/02/12 04:17:26;;;;;;;5.33;3.70;;;;;;;;;;5053135;28;20197;-89
2022/02/12 04:19:54;;;;;;;4.97;3.80;;;;;;;;;;5053342;28;20582;-89
2022/02/12 04:22:22;;;;;;;4.60;3.77;;;;;;;;;;5053210;28;20204;-88
2022/02/12 04:24:49;;;;;;;4.87;4.40;;;;;;;;;;5052825;28;20205;-89
2022/02/12 04:27:17;;;;;;;5.23;4.70;;;;;;;;;;5052860;28;20198;-88
2022/02/12 04:29:44;;;;;;;6.40;4.40;;;;;;;;;;5052627;28;20233;-89
2022/02/12 04:32:11;;;;;;;7.60;4.63;;;;;;;;;;5052560;28;20205;-90
2022/02/12 04:34:39;;;;;;;5.33;4.63;;;;;;;;;;5052868;28;20194;-90
2022/02/12 04:37:06;;;;;;;4.77;4.17;;;;;;;;;;5052566;28;20198;-89
2022/02/12 04:39:34;;;;;;;23.23;19.17;;;;;;;;;;5052802;28;20601;-90
2022/02/12 04:42:04;;;;;;;13.30;9.87;;;;;;;;;;5052614;28;20241;-86
2022/02/12 04:44:31;;;;;;;10.40;6.17;;;;;;;;;;5053281;28;20200;-87
2022/02/12 04:46:58;;;;;;;4.97;3.80;;;;;;;;;;5052182;28;20194;-86
2022/02/12 04:49:25;;;;;;;3.83;3.47;;;;;;;;;;5051858;28;20224;-85
2022/02/12 04:51:52;;;;;;;6.50;4.07;;;;;;;;;;5051858;28;20233;-86
2022/02/12 04:54:20;;;;;;;7.07;3.50;;;;;;;;;;5052438;28;20310;-86
2022/02/12 04:56:48;;;;;;;5.90;3.13;;;;;;;;;;5051805;28;20206;-86
2022/02/12 04:59:17;;;;;;;4.00;3.23;;;;;;;;;;5051968;28;20196;-85
2022/02/12 05:01:44;;;;;;;4.70;3.80;;;;;;;;;;5052024;28;20201;-86
2022/02/12 05:04:11;;;;;;;4.47;3.00;;;;;;;;;;5052066;28;20206;-86
2022/02/12 05:06:38;;;;;;;2.93;2.63;;;;;;;;;;5051582;28;20243;-86
2022/02/12 05:09:06;;;;;;;4.07;2.90;;;;;;;;;;5051717;28;20225;-86
2022/02/12 05:11:33;;;;;;;5.97;3.87;;;;;;;;;;5052272;28;20658;-86
2022/02/12 05:14:01;;;;;;;6.77;3.80;;;;;;;;;;5051876;28;20194;-85
2022/02/12 05:16:29;;;;;;;3.70;3.40;;;;;;;;;;5051784;28;20201;-86
2022/02/12 05:18:56;;;;;;;6.03;3.27;;;;;;;;;;5051697;28;20578;-86
2022/02/12 05:21:23;;;;;;;3.53;3.17;;;;;;;;;;5052003;28;20284;-88
2022/02/12 05:23:50;;;;;;;4.93;3.43;;;;;;;;;;5052092;28;20190;-88
2022/02/12 05:26:17;;;;;;;5.80;5.20;;;;;;;;;;5052223;28;20198;-88
2022/02/12 05:28:45;;;;;;;7.50;3.80;;;;;;;;;;5052263;28;20198;-90
2022/02/12 05:31:14;;;;;;;6.73;4.93;;;;;;;;;;5052221;28;20218;-86
2022/02/12 05:33:41;;;;;;;6.73;4.70;;;;;;;;;;5051854;28;20206;-87
2022/02/12 05:36:09;;;;;;;6.87;3.43;;;;;;;;;;5051590;28;20666;-87
2022/02/12 05:38:39;;;;;;;3.27;2.97;;;;;;;;;;5051582;28;20202;-87
2022/02/12 05:41:06;;;;;;;5.97;3.40;;;;;;;;;;5051882;28;20292;-87
2022/02/12 05:43:34;;;;;;;7.23;6.53;;;;;;;;;;5051994;28;20186;-87
2022/02/12 05:46:01;;;;;;;4.93;4.00;;;;;;;;;;5051679;28;20198;-87
2022/02/12 05:48:30;;;;;;;3.47;3.13;;;;;;;;;;5051833;28;20191;-87
2022/02/12 05:50:58;;;;;;;3.57;3.20;;;;;;;;;;5055266;28;20726;-87
2022/02/12 05:53:25;;;;;;;10.27;3.37;;;;;;;;;;5055728;28;20190;-87
2022/02/12 05:55:52;;;;;;;3.47;3.07;;;;;;;;;;5055460;28;20202;-88
2022/02/12 05:58:20;;;;;;;4.67;3.00;;;;;;;;;;5055517;28;20194;-88
2022/02/12 06:00:48;;;;;;;6.13;3.53;;;;;;;;;;5055663;28;20284;-88
2022/02/12 06:03:15;;;;;;;4.07;2.80;;;;;;;;;;5055651;28;20198;-87
2022/02/12 06:05:45;;;;;;;6.17;3.20;;;;;;;;;;5055472;28;20223;-88
2022/02/12 06:08:12;;;;;;;5.43;4.33;;;;;;;;;;5055122;28;20209;-87
2022/02/12 06:10:39;;;;;;;4.20;3.63;;;;;;;;;;5055524;28;20224;-88
2022/02/12 06:13:07;;;;;;;7.33;3.80;;;;;;;;;;5055285;28;20288;-89
2022/02/12 06:15:36;;;;;;;3.90;3.60;;;;;;;;;;5055512;28;20209;-88
2022/02/12 06:18:03;;;;;;;3.53;3.23;;;;;;;;;;5055156;28;20281;-88
2022/02/12 06:20:31;;;;;;;6.80;3.60;;;;;;;;;;5055445;28;20598;-88
2022/02/12 06:23:00;;;;;;;7.20;3.30;;;;;;;;;;5055330;28;20208;-88
2022/02/12 06:25:27;;;;;;;4.43;3.33;;;;;;;;;;5055515;28;20677;-88
2022/02/12 06:27:54;;;;;;;6.57;3.23;;;;;;;;;;5055201;28;20206;-89
2022/02/12 06:30:22;;;;;;;3.40;3.10;;;;;;;;;;5055128;28;20309;-89
2022/02/12 06:32:49;;;;;;;10.80;3.33;;;;;;;;;;5054785;28;20201;-87
2022/02/12 06:35:16;;;;;;;6.20;4.37;;;;;;;;;;5054918;28;20666;-86
2022/02/12 06:37:43;;;;;;;6.57;4.50;;;;;;;;;;5054699;28;20713;-87
2022/02/12 06:40:13;;;;;;;5.70;4.30;;;;;;;;;;5054491;28;20571;-87
2022/02/12 06:42:42;;;;;;;8.47;4.13;;;;;;;;;;5054512;28;20202;-88
2022/02/12 06:45:13;;;;;;;8.80;3.73;;;;;;;;;;5067157;28;20202;-82
2022/02/12 06:47:40;;;;;;;5.30;3.83;;;;;;;;;;5062581;28;20194;-87
2022/02/12 06:50:07;;;;;;;5.40;3.20;;;;;;;;;;5054008;28;20217;-87
2022/02/12 06:52:35;;;;;;;5.07;3.67;;;;;;;;;;5054153;28;20714;-86
2022/02/12 06:55:02;;;;;;;6.57;3.57;;;;;;;;;;5054066;28;20197;-87
2022/02/12 06:57:31;;;;;;;6.70;4.10;;;;;;;;;;5054279;28;20678;-87
2022/02/12 06:59:58;;;;;;;8.80;4.97;;;;;;;;;;5053539;28;20198;-87
2022/02/12 07:02:25;;;;;;;7.97;4.90;;;;;;;;;;5054048;28;20212;-87
2022/02/12 07:04:52;;;;;;;5.20;3.83;;;;;;;;;;5054042;28;20614;-87
2022/02/12 07:07:19;;;;;;;10.30;5.77;;;;;;;;;;5053778;28;20674;-87
2022/02/12 07:09:46;;;;;;;8.30;4.33;;;;;;;;;;5053924;28;20257;-87
2022/02/12 07:12:14;;;;;;;5.93;4.53;;;;;;;;;;5053679;28;20209;-87
2022/02/12 07:14:42;;;;;;;5.43;4.40;;;;;;;;;;5053829;28;20418;-87
2022/02/12 07:17:09;;;;;;;20.43;10.57;;;;;;;;;;5053689;28;20209;-87
2022/02/12 07:19:37;;;;;;;7.23;6.30;;;;;;;;;;5053611;28;20201;-88
2022/02/12 07:22:05;;;;;;;6.67;4.50;;;;;;;;;;5053826;28;20221;-87
2022/02/12 07:24:32;;;;;;;10.97;5.00;;;;;;;;;;5053647;28;20194;-88
2022/02/12 07:26:59;;;;;;;8.77;4.53;;;;;;;;;;5053581;28;20201;-87
2022/02/12 07:29:26;;;;;;;7.50;4.43;;;;;;;;;;5053587;28;20666;-87
2022/02/12 07:31:55;;;;;;;8.33;4.80;;;;;;;;;;5053675;28;20225;-87
2022/02/12 07:34:23;;;;;;;6.17;4.10;;;;;;;;;;5051394;28;20206;-91
2022/02/12 07:36:50;;;;;;;8.50;4.77;;;;;;;;;;5053571;28;20202;-89
2022/02/12 07:39:17;;;;;;;8.27;4.60;;;;;;;;;;5053786;28;20586;-90
2022/02/12 07:41:45;;;;;;;9.00;5.13;;;;;;;;;;5053754;28;20566;-89
2022/02/12 07:44:12;;;;;;;8.03;4.23;;;;;;;;;;5053711;28;20666;-88
2022/02/12 07:46:40;;;;;;;8.50;5.13;;;;;;;;;;5053286;28;20674;-89
2022/02/12 07:49:09;;;;;;;10.13;5.27;;;;;;;;;;5053142;28;20198;-87
2022/02/12 07:51:36;;;;;;;9.87;6.30;;;;;;;;;;5052807;28;20324;-88
2022/02/12 07:54:04;;;;;;;8.80;6.70;;;;;;;;;;5053454;28;20201;-89
2022/02/12 07:56:31;;;;;;;15.20;9.37;;;;;;;;;;5054238;28;20647;-89
2022/02/12 07:58:59;;;;;;;11.37;6.13;;;;;;;;;;5053158;28;20198;-87
2022/02/12 08:01:26;;;;;;;10.83;5.93;;;;;;;;;;5052841;28;20193;-90
2022/02/12 08:03:54;;;;;;;7.23;5.83;;;;;;;;;;5052948;28;20202;-89
2022/02/12 08:09:07;;;;;;;7.43;5.73;;;;;;;;;;5053086;28;20649;-88
2022/02/12 08:11:37;;;;;;;10.00;7.30;;;;;;;;;;5052384;28;20225;-90
2022/02/12 08:14:08;;;;;;;8.93;6.57;;;;;;;;;;5053135;28;20283;-88
2022/02/12 08:16:35;;;;;;;9.00;5.43;;;;;;;;;;5053432;28;20673;-89
2022/02/12 08:19:02;;;;;;;7.50;4.87;;;;;;;;;;5053180;28;20208;-90
2022/02/12 08:21:31;;;;;;;7.47;4.70;;;;;;;;;;5052694;28;20198;-86
2022/02/12 08:24:12;;;;;;;8.37;5.00;;;;;;;;;;5052694;28;20632;-87
2022/02/12 08:26:39;;;;;;;19.40;4.47;;;;;;;;;;5052210;28;20205;-87
2022/02/12 08:29:06;;;;;;;6.83;4.73;;;;;;;;;;5052957;28;20280;-86
2022/02/12 08:31:35;;;;;;;6.10;4.70;;;;;;;;;;5052250;28;20592;-87
2022/02/12 08:34:02;;;;;;;7.97;4.33;;;;;;;;;;5052491;28;20318;-87
2022/02/12 08:36:31;;;;;;;14.57;6.47;;;;;;;;;;5052126;28;20204;-87
2022/02/12 08:38:58;;;;;;;7.80;4.17;;;;;;;;;;5052326;28;20280;-87
2022/02/12 08:41:25;;;;;;;7.33;3.97;;;;;;;;;;5052053;28;20297;-86
2022/02/12 08:43:52;;;;;;;6.70;4.73;;;;;;;;;;5052180;28;20280;-87
2022/02/12 08:46:20;;;;;;;8.97;5.00;;;;;;;;;;5052549;28;20646;-87
2022/02/12 08:48:48;;;;;;;5.57;5.07;;;;;;;;;;5052278;28;20202;-87
2022/02/12 08:51:15;;;;;;;9.47;7.70;;;;;;;;;;5051851;28;20230;-87
2022/02/12 08:53:44;;;;;;;8.33;4.70;;;;;;;;;;5052429;28;20186;-88
2022/02/12 08:56:11;;;;;;;8.27;4.70;;;;;;;;;;5051981;28;20273;-88
2022/02/12 08:58:39;;;;;;;9.17;4.43;;;;;;;;;;5052474;28;20643;-88
2022/02/12 09:01:07;;;;;;;6.87;4.20;;;;;;;;;;5052029;28;20194;-87
2022/02/12 09:03:34;;;;;;;6.97;4.67;;;;;;;;;;5052133;28;20209;-87
2022/02/12 09:06:02;;;;;;;9.37;5.13;;;;;;;;;;5052931;28;20201;-87
2022/02/12 09:08:30;;;;;;;7.27;4.93;;;;;;;;;;5052513;28;20574;-88
2022/02/12 09:10:59;;;;;;;6.73;4.83;;;;;;;;;;5052179;28;20222;-87
2022/02/12 09:13:26;;;;;;;4.57;3.83;;;;;;;;;;5052519;28;20200;-88
2022/02/12 09:15:55;;;;;;;5.97;4.20;;;;;;;;;;5051940;28;20202;-88
2022/02/12 09:18:22;;;;;;;8.90;5.10;;;;;;;;;;5052115;28;20210;-87
2022/02/12 09:20:50;;;;;;;5.43;4.17;;;;;;;;;;5052204;28;20572;-88
2022/02/12 09:23:17;;;;;;;3.80;3.50;;;;;;;;;;5054303;28;20686;-88
2022/02/12 09:25:44;;;;;;;5.60;4.00;;;;;;;;;;5055793;28;20197;-87
2022/02/12 09:28:13;;;;;;;4.50;3.70;;;;;;;;;;5055921;28;20285;-88
2022/02/12 09:30:40;;;;;;;5.63;4.30;;;;;;;;;;5056013;28;20705;-87
2022/02/12 09:33:08;;;;;;;4.50;4.10;;;;;;;;;;5055903;28;20229;-86
2022/02/12 09:35:35;;;;;;;8.77;4.13;;;;;;;;;;5055438;28;20247;-88
2022/02/12 09:38:02;;;;;;;7.40;4.60;;;;;;;;;;5055475;28;20659;-86
2022/02/12 09:40:32;;;;;;;7.60;3.87;;;;;;;;;;5055337;28;20209;-86
2022/02/12 09:43:01;;;;;;;6.57;3.87;;;;;;;;;;5055559;28;20255;-87
2022/02/12 09:45:35;;;;;;;4.80;4.23;;;;;;;;;;5055614;28;20666;-87
2022/02/12 09:48:04;;;;;;;4.60;3.83;;;;;;;;;;5055515;28;20208;-87
2022/02/12 09:50:32;;;;;;;4.63;3.80;;;;;;;;;;5055079;28;20237;-86
2022/02/12 09:53:00;;;;;;;4.63;3.70;;;;;;;;;;5054940;28;20237;-87
2022/02/12 09:55:29;;;;;;;4.20;3.80;;;;;;;;;;5055003;28;20197;-86
2022/02/12 09:57:56;;;;;;;5.03;3.93;;;;;;;;;;5055247;28;20673;-87
2022/02/12 10:00:23;;;;;;;6.20;3.50;;;;;;;;;;5055000;28;20234;-86
2022/02/12 10:02:54;;;;;;;4.60;3.60;;;;;;;;;;5055288;28;20198;-86
2022/02/12 10:05:25;;;;;;;5.80;4.53;;;;;;;;;;5054757;28;20193;-86
2022/02/12 10:08:09;;;;;;;8.60;4.47;;;;;;;;;;5054822;28;20190;-86
2022/02/12 10:10:38;;;;;;;5.77;3.77;;;;;;;;;;5054843;28;20186;-86
2022/02/12 10:13:15;;;;;;;6.73;4.40;;;;;;;;;;5054734;28;20195;-86
2022/02/12 10:15:45;;;;;;;5.80;3.50;;;;;;;;;;5054775;28;20569;-86
2022/02/12 10:18:14;;;;;;;7.70;5.17;;;;;;;;;;5055026;28;20202;-86
2022/02/12 10:20:42;;;;;;;5.43;4.50;;;;;;;;;;5054616;28;20194;-86
2022/02/12 10:23:12;;;;;;;5.60;4.13;;;;;;;;;;5054679;28;20203;-87
2022/02/12 10:25:41;;;;;;;12.00;7.90;;;;;;;;;;5054405;28;20240;-86
2022/02/12 10:28:10;;;;;;;5.60;4.07;;;;;;;;;;5055003;28;20225;-88
2022/02/12 10:30:38;;;;;;;3.67;3.07;;;;;;;;;;5054808;28;20670;-87
2022/02/12 10:33:07;;;;;;;4.43;3.67;;;;;;;;;;5054974;28;20635;-87
2022/02/12 10:35:37;;;;;;;3.93;3.23;;;;;;;;;;5054011;28;20198;-88
2022/02/12 10:38:05;;;;;;;4.57;3.40;;;;;;;;;;5054856;28;20224;-87
2022/02/12 10:40:34;;;;;;;3.77;3.33;;;;;;;;;;5054486;28;20218;-87
2022/02/12 10:43:02;;;;;;;3.63;3.10;;;;;;;;;;5054378;28;20195;-87
2022/02/12 10:45:30;;;;;;;5.40;2.77;;;;;;;;;;5054392;28;20277;-87
2022/02/12 10:47:59;;;;;;;6.53;2.97;;;;;;;;;;5054431;28;20374;-87
2022/02/12 10:50:27;;;;;;;4.83;3.03;;;;;;;;;;5054223;28;20203;-87
2022/02/12 10:53:00;;;;;;;6.67;3.07;;;;;;;;;;5058399;28;20230;-87
2022/02/12 10:55:37;;;;;;;4.53;3.33;;;;;;;;;;5063244;28;20170;-87
2022/02/12 11:01:18;;;;;;;6.50;4.73;;;;;;;;;;4968490;28;20664;-87
2022/02/12 11:03:45;;;;;;;5.43;4.07;;;;;;;;;;4973532;28;20261;-87
2022/02/12 11:06:14;;;;;;;7.43;4.20;;;;;;;;;;4973476;28;20218;-88
2022/02/12 11:08:43;;;;;;;3.67;2.93;;;;;;;;;;4973224;28;20266;-88
2022/02/12 11:11:10;;;;;;;5.60;3.17;;;;;;;;;;4973491;28;20630;-88
2022/02/12 11:13:40;;;;;;;3.07;2.47;;;;;;;;;;4973338;28;20207;-88
2022/02/12 11:16:07;;;;;;;3.20;2.90;;;;;;;;;;4973263;28;20204;-88
2022/02/12 11:18:34;;;;;;;39.47;25.47;;;;;;;;;;4973092;28;20309;-88
2022/02/12 11:21:02;;;;;;;64.53;45.93;;;;;;;;;;4973193;28;20210;-89
2022/02/12 11:23:30;;;;;;;7.37;6.00;;;;;;;;;;4973092;28;20263;-88
2022/02/12 11:26:20;;;;;;;4.27;2.60;;;;;;;;;;4981879;28;20203;-88
2022/02/12 11:28:48;;;;;;;10.97;7.17;;;;;;;;;;4972904;28;20208;-88
2022/02/12 11:31:18;;;;;;;6.17;3.60;;;;;;;;;;4987147;28;20628;-87
2022/02/12 11:34:09;;;;;;;7.90;7.10;;;;;;;;;;5053506;28;20706;-88
2022/02/12 11:36:37;;;;;;;2.23;2.03;;;;;;;;;;5053346;28;20200;-87
2022/02/12 11:39:09;;;;;;;4.07;2.30;;;;;;;;;;5053455;28;20205;-88
2022/02/12 11:41:39;;;;;;;2.87;2.20;;;;;;;;;;5053352;28;20205;-88
2022/02/12 11:44:06;;;;;;;1.83;1.73;;;;;;;;;;5053615;28;20207;-88
2022/02/12 11:47:05;;;;;;;4.07;2.33;;;;;;;;;;5052423;28;20227;-88
2022/02/12 11:49:34;;;;;;;5.17;2.03;;;;;;;;;;5019862;28;20200;-88
2022/02/12 11:52:03;;;;;;;2.50;2.17;;;;;;;;;;5053013;28;20785;-87
2022/02/12 11:55:03;;;;;;;2.43;2.10;;;;;;;;;;5053028;28;20222;-88
2022/02/12 11:57:46;;;;;;;3.10;2.27;;;;;;;;;;5053092;28;20193;-88
2022/02/12 12:00:39;;;;;;;2.30;2.10;;;;;;;;;;5051401;28;20311;-89
2022/02/12 12:03:08;;;;;;;4.13;2.70;;;;;;;;;;5053093;28;20194;-88
2022/02/12 12:05:35;;;;;;;2.20;2.00;;;;;;;;;;5052714;28;20282;-89
2022/02/12 12:08:10;;;;;;;2.90;1.80;;;;;;;;;;5052939;28;20236;-89
2022/02/12 12:10:38;;;;;;;3.13;2.10;;;;;;;;;;5052751;28;20202;-88
2022/02/12 12:13:44;;;;;;;2.10;1.83;;;;;;;;;;5052695;28;20228;-89
2022/02/12 12:16:33;;;;;;;2.07;1.87;;;;;;;;;;5052857;28;20263;-89
2022/02/12 12:19:03;;;;;;;3.77;2.00;;;;;;;;;;5053293;28;20626;-88
2022/02/12 12:21:31;;;;;;;6.17;4.50;;;;;;;;;;5052664;28;20205;-89
2022/02/12 12:24:00;;;;;;;2.37;1.67;;;;;;;;;;5052662;28;20286;-89
2022/02/12 12:26:42;;;;;;;2.73;1.80;;;;;;;;;;5053062;28;20291;-88
2022/02/12 12:32:04;;;;;;;2.43;1.93;;;;;;;;;;5052821;28;20294;-89
2022/02/12 12:34:32;;;;;;;1.90;1.80;;;;;;;;;;5050841;28;20290;-89
2022/02/12 12:36:59;;;;;;;3.43;1.60;;;;;;;;;;5052801;28;20592;-88
2022/02/12 12:39:34;;;;;;;1.70;1.60;;;;;;;;;;5052798;28;20197;-90
2022/02/12 12:42:03;;;;;;;1.70;1.60;;;;;;;;;;5052505;28;20196;-89
2022/02/12 12:44:31;;;;;;;1.83;1.57;;;;;;;;;;5052367;28;20203;-89
2022/02/12 12:47:00;;;;;;;2.07;1.57;;;;;;;;;;5052917;28;20571;-89
2022/02/12 12:49:33;;;;;;;1.77;1.50;;;;;;;;;;5052545;28;20200;-90
2022/02/12 12:52:01;;;;;;;5.00;3.30;;;;;;;;;;5052367;28;20663;-90
2022/02/12 12:54:32;;;;;;;1.83;1.70;;;;;;;;;;5053258;28;20203;-89
2022/02/12 12:57:00;;;;;;;1.80;1.70;;;;;;;;;;5052432;28;20191;-90
2022/02/12 12:59:28;;;;;;;3.87;1.87;;;;;;;;;;5055876;28;20218;-89
2022/02/12 13:01:58;;;;;;;5.30;2.20;;;;;;;;;;5056473;28;20195;-89
2022/02/12 13:04:26;;;;;;;2.20;1.77;;;;;;;;;;5056736;28;20221;-89
2022/02/12 13:06:54;;;;;;;3.10;2.67;;;;;;;;;;5056585;28;20199;-90
2022/02/12 13:09:22;;;;;;;16.23;11.70;;;;;;;;;;5056489;28;20197;-90
2022/02/12 13:11:49;;;;;;;4.83;3.37;;;;;;;;;;5056304;28;20230;-89
2022/02/12 13:14:17;;;;;;;11.57;7.97;;;;;;;;;;5056563;28;20210;-90
2022/02/12 13:16:46;;;;;;;5.40;4.00;;;;;;;;;;5056782;28;20199;-90
2022/02/12 13:19:15;;;;;;;5.27;2.57;;;;;;;;;;5056820;28;20571;-89
2022/02/12 13:21:50;;;;;;;8.90;6.20;;;;;;;;;;5056961;28;20195;-90
2022/02/12 13:24:19;;;;;;;5.83;3.00;;;;;;;;;;5056601;28;20202;-89
2022/02/12 13:26:47;;;;;;;4.20;2.53;;;;;;;;;;5056014;28;20260;-90
2022/02/12 13:29:19;;;;;;;8.33;6.57;;;;;;;;;;5056345;28;20202;-90
2022/02/12 13:31:49;;;;;;;26.37;20.77;;;;;;;;;;5056082;28;20318;-92
2022/02/12 13:34:19;;;;;;;7.53;5.13;;;;;;;;;;5056555;28;20554;-90
2022/02/12 13:36:47;;;;;;;5.00;4.20;;;;;;;;;;5056059;28;20199;-90
2022/02/12 13:39:18;;;;;;;2.90;2.33;;;;;;;;;;5056489;28;20246;-90
2022/02/12 13:41:46;;;;;;;2.93;2.37;;;;;;;;;;5056554;28;20204;-90
2022/02/12 13:44:14;;;;;;;3.40;3.10;;;;;;;;;;5056300;28;20286;-91
2022/02/12 13:46:43;;;;;;;4.27;2.70;;;;;;;;;;5056086;28;20197;-91
2022/02/12 13:49:19;;;;;;;1.63;1.53;;;;;;;;;;5055862;28;20255;-91
2022/02/12 13:51:56;;;;;;;3.00;1.90;;;;;;;;;;5055650;28;20225;-91
2022/02/12 13:54:24;;;;;;;4.20;2.03;;;;;;;;;;5055722;28;20692;-90
2022/02/12 13:56:53;;;;;;;2.93;2.00;;;;;;;;;;5055772;28;20190;-90
2022/02/12 13:59:21;;;;;;;2.10;1.90;;;;;;;;;;5055816;28;20205;-90
2022/02/12 14:01:49;;;;;;;4.20;3.80;;;;;;;;;;5055526;28;20234;-91
2022/02/12 14:04:16;;;;;;;3.93;2.40;;;;;;;;;;5055644;28;20741;-89
2022/02/12 14:06:45;;;;;;;4.03;3.63;;;;;;;;;;5056046;28;20220;-89
2022/02/12 14:09:14;;;;;;;9.90;8.77;;;;;;;;;;5054601;28;20221;-90
2022/02/12 14:11:42;;;;;;;5.23;4.27;;;;;;;;;;5055385;28;20260;-90
2022/02/12 14:14:11;;;;;;;3.13;2.90;;;;;;;;;;5055404;28;20196;-90
2022/02/12 14:16:38;;;;;;;5.23;2.90;;;;;;;;;;5055414;28;20674;-90
2022/02/12 14:19:06;;;;;;;3.37;3.03;;;;;;;;;;5055194;28;20194;-90
2022/02/12 14:21:34;;;;;;;2.70;2.50;;;;;;;;;;5055949;28;20205;-90
2022/02/12 14:24:03;;;;;;;2.33;2.07;;;;;;;;;;5055230;28;20198;-90
2022/02/12 14:26:32;;;;;;;3.13;2.83;;;;;;;;;;5055106;28;20194;-90
2022/02/12 14:28:59;;;;;;;8.23;6.23;;;;;;;;;;5055199;28;20197;-90
2022/02/12 14:31:26;;;;;;;5.23;4.40;;;;;;;;;;5055698;28;20647;-90
2022/02/12 14:33:54;;;;;;;1.80;1.70;;;;;;;;;;5054873;28;20702;-90
2022/02/12 14:36:22;;;;;;;2.27;2.03;;;;;;;;;;5054942;28;20197;-90
2022/02/12 14:38:49;;;;;;;2.30;2.10;;;;;;;;;;5055172;28;20226;-89
2022/02/12 14:41:18;;;;;;;2.37;2.17;;;;;;;;;;5054984;28;20186;-90
2022/02/12 14:43:46;;;;;;;17.53;12.03;;;;;;;;;;5054748;28;20202;-91
2022/02/12 14:46:13;;;;;;;3.77;2.20;;;;;;;;;;5054680;28;20208;-91
2022/02/12 14:48:41;;;;;;;2.93;2.07;;;;;;;;;;5054996;28;20585;-90
2022/02/12 14:51:08;;;;;;;2.93;1.90;;;;;;;;;;5054745;28;20240;-90
2022/02/12 14:53:35;;;;;;;3.47;3.17;;;;;;;;;;5054759;28;20297;-90
2022/02/12 14:56:03;;;;;;;3.10;2.03;;;;;;;;;;5054752;28;20746;-91
2022/02/12 14:58:32;;;;;;;2.77;1.90;;;;;;;;;;5054558;28;20198;-91
2022/02/12 15:01:00;;;;;;;2.07;1.70;;;;;;;;;;5054445;28;20197;-90
2022/02/12 15:03:27;;;;;;;3.87;2.40;;;;;;;;;;5054708;28;20577;-92